Time;durP1;ratioP1;P1;durP2;ratioP2;P2;SDS_P1;SDS_P2;PMS_P1;PMS_P2;Temp;Humidity;BMP_temperature;BMP_pressure;BME280_temperature;BME280_humidity;BME280_pressure;Samples;Min_cycle;Max_cycle;Signal;HPM_P1;HPM_P2
2023/10/01 00:00:46;;;;;;;11.77;10.97;;;;;;;12.13;90.44;102153.59;5054938;28;20249;-69
2023/10/01 00:03:17;;;;;;;13.40;12.13;;;;;;;12.09;90.34;102149.47;5055269;28;20287;-70
2023/10/01 00:05:44;;;;;;;14.87;12.80;;;;;;;11.95;89.70;102151.56;5055433;28;20176;-70
2023/10/01 00:08:12;;;;;;;20.57;14.83;;;;;;;11.80;89.66;102157.19;5054863;28;20202;-70
2023/10/01 00:10:41;;;;;;;25.53;15.33;;;;;;;11.80;90.22;102150.97;5055325;28;20239;-70
2023/10/01 00:13:08;;;;;;;16.00;13.43;;;;;;;11.78;90.23;102153.81;5054981;28;20655;-70
2023/10/01 00:15:35;;;;;;;17.40;14.27;;;;;;;11.91;90.25;102142.94;5054928;28;20278;-70
2023/10/01 00:18:01;;;;;;;17.10;14.73;;;;;;;11.98;88.92;102152.16;5055143;28;20643;-70
2023/10/01 00:20:28;;;;;;;14.33;12.83;;;;;;;11.90;89.68;102146.59;5055048;28;20195;-70
2023/10/01 00:22:57;;;;;;;13.10;11.80;;;;;;;11.87;89.76;102150.38;5054573;28;20195;-71
2023/10/01 00:25:24;;;;;;;14.77;13.13;;;;;;;11.90;89.67;102155.47;5054484;28;20546;-71
2023/10/01 00:27:51;;;;;;;15.80;14.20;;;;;;;11.97;89.94;102152.28;5054450;28;20269;-71
2023/10/01 00:30:18;;;;;;;15.73;14.07;;;;;;;12.10;87.75;102156.53;5055088;28;20535;-71
2023/10/01 00:32:44;;;;;;;16.00;14.00;;;;;;;12.09;87.50;102157.53;5053869;28;20324;-71
2023/10/01 00:35:11;;;;;;;16.60;14.77;;;;;;;11.91;88.23;102161.69;5053011;28;20258;-71
2023/10/01 00:37:38;;;;;;;16.20;13.43;;;;;;;11.81;88.60;102161.59;5054868;28;20258;-71
2023/10/01 00:40:08;;;;;;;16.07;14.27;;;;;;;11.92;88.31;102160.72;5054726;28;20188;-71
2023/10/01 00:42:35;;;;;;;20.43;13.43;;;;;;;11.98;88.18;102159.34;5054109;28;20213;-70
2023/10/01 00:45:03;;;;;;;15.77;14.10;;;;;;;11.76;88.78;102153.06;5054141;28;20187;-70
2023/10/01 00:47:32;;;;;;;14.70;13.23;;;;;;;11.69;89.29;102145.63;5054104;28;20217;-70
2023/10/01 00:50:00;;;;;;;13.73;12.43;;;;;;;11.67;89.44;102155.63;5054059;28;20270;-70
2023/10/01 00:52:28;;;;;;;14.30;12.80;;;;;;;11.65;89.93;102158.41;5052683;28;20215;-70
2023/10/01 00:54:55;;;;;;;15.17;13.73;;;;;;;11.86;88.91;102150.50;5054125;28;20200;-70
2023/10/01 00:57:22;;;;;;;15.57;13.97;;;;;;;11.99;88.14;102136.94;5054127;28;20655;-70
2023/10/01 00:59:50;;;;;;;14.53;13.03;;;;;;;12.01;87.16;102141.19;5054102;28;20175;-70
2023/10/01 01:02:17;;;;;;;17.27;13.23;;;;;;;11.76;87.29;102139.66;5052474;28;20215;-70
2023/10/01 01:05:05;;;;;;;13.27;12.10;;;;;;;11.52;88.45;102133.59;5053752;28;20175;-70
2023/10/01 01:07:32;;;;;;;12.93;11.63;;;;;;;11.44;89.23;102133.38;5054282;28;20179;-70
2023/10/01 01:10:02;;;;;;;11.47;10.77;;;;;;;11.41;89.30;102130.94;5053958;28;20249;-70
2023/10/01 01:12:29;;;;;;;11.37;10.27;;;;;;;11.40;89.80;102132.75;5053560;28;20215;-70
2023/10/01 01:14:58;;;;;;;15.90;14.33;;;;;;;11.46;89.96;102134.94;5053541;28;20752;-70
2023/10/01 01:17:27;;;;;;;13.07;12.07;;;;;;;11.40;90.13;102137.25;5052189;28;20196;-70
2023/10/01 01:19:57;;;;;;;18.20;13.47;;;;;;;11.49;90.04;102125.81;5053359;28;20187;-70
2023/10/01 01:22:28;;;;;;;15.13;13.57;;;;;;;11.54;90.09;102136.16;5054175;28;20195;-70
2023/10/01 01:25:00;;;;;;;15.77;13.67;;;;;;;11.56;89.49;102132.38;5052204;28;20270;-70
2023/10/01 01:27:31;;;;;;;17.30;13.30;;;;;;;11.40;90.11;102137.25;5053739;28;20171;-70
2023/10/01 01:29:58;;;;;;;13.63;12.43;;;;;;;11.42;90.02;102137.97;5053697;28;20180;-70
2023/10/01 01:32:25;;;;;;;12.33;11.30;;;;;;;11.36;90.42;102131.31;5053283;28;20195;-70
2023/10/01 01:34:54;;;;;;;12.80;11.60;;;;;;;11.33;90.66;102125.34;5051993;28;20237;-70
2023/10/01 01:40:14;;;;;;;11.53;10.70;;;;;;;11.30;90.91;102118.38;5052011;28;20183;-71
2023/10/01 01:42:40;;;;;;;10.77;10.07;;;;;;;11.26;90.88;102106.22;5053106;28;20244;-71
2023/10/01 01:45:19;;;;;;;13.00;11.87;;;;;;;11.25;90.81;102104.50;5052548;28;20600;-71
2023/10/01 01:47:46;;;;;;;11.20;10.30;;;;;;;11.27;90.98;102105.25;5052167;28;20609;-69
2023/10/01 01:50:19;;;;;;;14.07;11.93;;;;;;;11.33;91.05;102115.47;5053241;28;20545;-68
2023/10/01 01:52:52;;;;;;;13.03;11.67;;;;;;;11.31;90.69;102103.19;5053662;28;20171;-70
2023/10/01 01:55:23;;;;;;;13.17;12.03;;;;;;;11.22;90.89;102110.13;5053347;28;20187;-70
2023/10/01 02:00:38;;;;;;;21.87;15.27;;;;;;;11.07;90.71;102107.81;5052005;28;20215;-70
2023/10/01 02:03:10;;;;;;;12.47;11.50;;;;;;;11.09;91.15;102096.00;5053568;28;20604;-70
2023/10/01 02:05:41;;;;;;;11.40;10.53;;;;;;;11.12;91.13;102102.97;5053291;28;20179;-70
2023/10/01 02:08:34;;;;;;;13.13;11.97;;;;;;;11.12;91.02;102100.28;5053298;28;20578;-70
2023/10/01 02:11:08;;;;;;;12.43;11.20;;;;;;;11.17;90.88;102090.88;5052892;28;20241;-70
2023/10/01 02:13:40;;;;;;;13.33;12.23;;;;;;;11.21;90.75;102094.16;5051464;28;20180;-70
2023/10/01 02:18:57;;;;;;;14.50;13.03;;;;;;;11.19;90.03;102086.28;5052871;28;20179;-70
2023/10/01 02:21:43;;;;;;;13.83;11.93;;;;;;;11.14;90.00;102090.28;5052751;28;20207;-70
2023/10/01 02:24:13;;;;;;;15.87;14.40;;;;;;;11.07;90.40;102097.13;5053114;28;20180;-70
2023/10/01 02:26:46;;;;;;;18.60;13.47;;;;;;;11.04;90.41;102095.50;5052773;28;20210;-70
2023/10/01 02:29:13;;;;;;;14.37;13.10;;;;;;;11.10;90.85;102091.50;5051747;28;20184;-70
2023/10/01 02:31:48;;;;;;;16.37;14.13;;;;;;;11.19;90.18;102090.78;5052659;28;20211;-70
2023/10/01 02:34:17;;;;;;;13.23;11.90;;;;;;;11.42;88.49;102100.47;5052596;28;20206;-70
2023/10/01 02:36:44;;;;;;;15.13;13.57;;;;;;;11.27;88.71;102094.56;5052752;28;20583;-70
2023/10/01 02:39:19;;;;;;;14.97;13.47;;;;;;;11.38;88.86;102099.88;5052659;28;20245;-70
2023/10/01 02:42:26;;;;;;;15.13;13.73;;;;;;;11.33;88.92;102095.91;5051345;28;20222;-70
2023/10/01 02:44:47;;;;;;;14.73;13.20;;;;;;;11.12;89.56;102097.59;5052241;28;20200;-70
2023/10/01 02:47:23;;;;;;;17.23;14.00;;;;;;;11.00;89.85;102089.56;5052944;28;20620;-70
2023/10/01 02:49:58;;;;;;;16.57;12.27;;;;;;;10.93;90.29;102088.34;5051527;28;20187;-70
2023/10/01 02:52:32;;;;;;;15.00;12.57;;;;;;;10.96;90.59;102084.56;5052833;28;20218;-70
2023/10/01 02:55:00;;;;;;;18.20;13.27;;;;;;;11.03;90.98;102084.94;5052279;28;20199;-70
2023/10/01 02:57:27;;;;;;;20.13;13.40;;;;;;;11.06;90.61;102092.72;5056588;28;20241;-70
2023/10/01 03:02:40;;;;;;;12.83;11.70;;;;;;;10.96;90.97;102084.56;5055037;28;20666;-70
2023/10/01 03:05:28;;;;;;;12.20;11.30;;;;;;;10.96;91.12;102093.44;5056246;28;20203;-70
2023/10/01 03:07:56;;;;;;;13.93;12.73;;;;;;;10.90;91.17;102088.59;5056590;28;20222;-70
2023/10/01 03:10:26;;;;;;;14.00;12.70;;;;;;;10.89;91.26;102089.56;5056233;28;20217;-70
2023/10/01 03:12:58;;;;;;;11.47;10.43;;;;;;;10.89;91.48;102094.91;5056929;28;20682;-70
2023/10/01 03:15:29;;;;;;;14.43;12.50;;;;;;;10.88;91.45;102098.56;5055920;28;20303;-71
2023/10/01 03:17:58;;;;;;;12.10;11.20;;;;;;;10.90;91.50;102099.28;5056104;28;20175;-70
2023/10/01 03:26:08;;;;;;;12.83;11.53;;;;;;;10.97;91.47;102097.84;5055744;28;20172;-70
2023/10/01 03:31:24;;;;;;;12.60;11.37;;;;;;;11.01;91.67;102103.78;5055808;28;20253;-70
2023/10/01 03:33:54;;;;;;;13.13;11.07;;;;;;;11.02;91.62;102097.47;5055793;28;20655;-70
2023/10/01 03:36:25;;;;;;;12.03;11.07;;;;;;;11.04;91.58;102100.00;5055736;28;20194;-70
2023/10/01 03:38:59;;;;;;;15.53;12.33;;;;;;;11.06;91.56;102101.59;5056008;28;20193;-70
2023/10/01 03:41:27;;;;;;;12.83;11.73;;;;;;;11.09;91.69;102106.72;5055330;28;20260;-70
2023/10/01 03:43:55;;;;;;;15.53;12.30;;;;;;;11.13;91.78;102100.13;5055577;28;20590;-70
2023/10/01 03:48:58;;;;;;;11.67;10.70;;;;;;;11.23;91.88;102106.47;5055837;28;20250;-70
2023/10/01 03:57:29;;;;;;;19.80;13.83;;;;;;;11.24;92.02;102101.97;5044390;28;20230;-71
2023/10/01 03:59:57;;;;;;;15.60;14.10;;;;;;;11.24;92.32;102094.81;5055358;28;20187;-71
2023/10/01 04:02:28;;;;;;;19.33;14.80;;;;;;;11.26;92.58;102098.19;5055558;28;20569;-71
2023/10/01 04:04:58;;;;;;;14.87;12.73;;;;;;;11.29;92.66;102100.63;5055531;28;20630;-71
2023/10/01 04:07:26;;;;;;;15.27;12.33;;;;;;;11.34;92.48;102101.09;5054075;28;20171;-71
2023/10/01 04:09:53;;;;;;;13.83;12.47;;;;;;;11.39;92.55;102093.56;5055135;28;20210;-71
2023/10/01 04:12:27;;;;;;;13.00;11.67;;;;;;;11.44;92.45;102095.88;5054697;28;20214;-71
2023/10/01 04:15:01;;;;;;;13.30;11.97;;;;;;;11.49;92.46;102085.66;5054679;28;20211;-71
2023/10/01 04:17:35;;;;;;;13.70;11.27;;;;;;;11.55;92.66;102090.47;5054741;28;20176;-71
2023/10/01 04:20:12;;;;;;;12.20;11.13;;;;;;;11.60;92.52;102080.25;5055198;28;20198;-71
2023/10/01 04:22:40;;;;;;;13.13;12.07;;;;;;;11.64;92.49;102076.34;5054902;28;20203;-71
2023/10/01 04:25:11;;;;;;;12.53;11.40;;;;;;;11.69;92.34;102078.66;5054510;28;20187;-71
2023/10/01 04:27:41;;;;;;;16.87;14.43;;;;;;;11.68;92.69;102085.84;5054832;28;20611;-71
2023/10/01 04:30:10;;;;;;;16.27;11.97;;;;;;;11.72;92.69;102084.63;5055024;28;20171;-71
2023/10/01 04:32:36;;;;;;;14.27;11.87;;;;;;;11.76;92.70;102083.41;5054853;28;20239;-70
2023/10/01 04:35:14;;;;;;;13.13;11.93;;;;;;;11.78;92.55;102085.97;5054262;28;20259;-71
2023/10/01 04:37:47;;;;;;;22.37;14.07;;;;;;;11.76;93.15;102087.91;5054933;28;20180;-71
2023/10/01 04:40:39;;;;;;;12.43;11.37;;;;;;;11.80;93.00;102094.72;5054183;28;20194;-71
2023/10/01 04:43:10;;;;;;;11.67;10.43;;;;;;;11.87;92.69;102093.25;5054120;28;20213;-71
2023/10/01 04:45:40;;;;;;;12.53;10.77;;;;;;;11.89;93.11;102086.78;5054455;28;20171;-71
2023/10/01 04:48:15;;;;;;;14.57;12.23;;;;;;;11.92;93.11;102090.19;5054651;28;20278;-71
2023/10/01 04:50:44;;;;;;;20.43;11.27;;;;;;;11.95;92.94;102087.25;5054470;28;20207;-70
2023/10/01 04:53:13;;;;;;;11.87;10.63;;;;;;;12.00;92.80;102093.94;5054019;28;20663;-71
2023/10/01 04:55:43;;;;;;;11.97;10.87;;;;;;;12.05;92.85;102082.84;5053882;28;20214;-71
2023/10/01 04:58:14;;;;;;;9.70;9.10;;;;;;;12.04;92.99;102087.34;5053937;28;20203;-71
2023/10/01 05:00:45;;;;;;;11.63;10.53;;;;;;;12.10;92.93;102083.28;5054129;28;20568;-70
2023/10/01 05:03:15;;;;;;;10.37;9.63;;;;;;;12.11;92.84;102082.31;5054059;28;20195;-70
2023/10/01 05:05:45;;;;;;;12.47;11.17;;;;;;;12.17;92.99;102092.53;5053786;28;20187;-70
2023/10/01 05:08:12;;;;;;;11.83;10.63;;;;;;;12.17;92.74;102082.66;5054032;28;20709;-70
2023/10/01 05:10:52;;;;;;;11.17;10.40;;;;;;;12.16;92.72;102093.50;5053609;28;20289;-69
2023/10/01 05:13:20;;;;;;;10.40;9.60;;;;;;;12.18;92.93;102100.44;5054253;28;20183;-70
2023/10/01 05:15:49;;;;;;;11.63;10.33;;;;;;;12.16;92.93;102093.50;5053484;28;20211;-70
2023/10/01 05:18:17;;;;;;;12.10;10.13;;;;;;;12.16;93.01;102106.91;5053974;28;20202;-70
2023/10/01 05:20:45;;;;;;;9.33;8.63;;;;;;;12.18;93.19;102096.91;5054010;28;20213;-70
2023/10/01 05:23:12;;;;;;;10.17;9.23;;;;;;;12.14;93.19;102106.19;5054027;28;20221;-70
2023/10/01 05:25:45;;;;;;;8.20;7.87;;;;;;;12.16;92.99;102096.19;5053738;28;20602;-70
2023/10/01 05:28:31;;;;;;;7.97;7.40;;;;;;;12.16;93.19;102102.41;5053477;28;20187;-70
2023/10/01 05:30:59;;;;;;;7.93;7.20;;;;;;;12.19;93.10;102103.97;5052479;28;20207;-70
2023/10/01 05:33:27;;;;;;;10.00;8.93;;;;;;;12.19;92.91;102096.78;5053580;28;20187;-70
2023/10/01 05:35:57;;;;;;;8.70;7.87;;;;;;;12.22;93.09;102087.66;5053251;28;20571;-70
2023/10/01 05:38:26;;;;;;;10.40;9.63;;;;;;;12.18;92.99;102094.22;5053845;28;20254;-70
2023/10/01 05:40:56;;;;;;;8.67;8.10;;;;;;;12.17;93.04;102095.22;5053166;28;20203;-70
2023/10/01 05:43:27;;;;;;;9.60;8.80;;;;;;;12.18;92.91;102096.91;5053543;28;20233;-70
2023/10/01 05:46:01;;;;;;;11.50;10.40;;;;;;;12.16;92.60;102096.19;5053507;28;20531;-70
2023/10/01 05:48:29;;;;;;;9.63;8.97;;;;;;;12.13;92.70;102099.13;5053511;28;20509;-70
2023/10/01 05:50:58;;;;;;;9.60;8.80;;;;;;;12.11;92.91;102098.41;5053048;28;20211;-70
2023/10/01 05:53:26;;;;;;;16.07;10.77;;;;;;;12.01;92.80;102095.63;5053120;28;20195;-70
2023/10/01 05:55:52;;;;;;;14.10;9.90;;;;;;;11.97;93.09;102101.34;5052986;28;20207;-70
2023/10/01 05:58:21;;;;;;;11.03;10.00;;;;;;;11.97;92.94;102093.31;5053157;28;20186;-70
2023/10/01 06:00:58;;;;;;;10.83;9.67;;;;;;;11.96;93.15;102091.66;5053161;28;20297;-70
2023/10/01 06:03:26;;;;;;;9.43;8.63;;;;;;;11.90;92.61;102096.53;5053370;28;20595;-70
2023/10/01 06:05:59;;;;;;;9.80;9.00;;;;;;;11.84;92.99;102097.03;5053580;28;20241;-70
2023/10/01 06:08:26;;;;;;;9.60;8.70;;;;;;;11.87;92.96;102103.97;5053510;28;20207;-70
2023/10/01 06:11:04;;;;;;;8.47;7.83;;;;;;;11.92;92.95;102106.28;5053235;28;20215;-70
2023/10/01 06:13:35;;;;;;;10.43;7.70;;;;;;;12.03;92.54;102106.22;5053350;28;20258;-70
2023/10/01 06:16:15;;;;;;;9.40;8.40;;;;;;;12.04;92.62;102108.78;5053095;28;20545;-70
2023/10/01 06:18:50;;;;;;;8.63;7.90;;;;;;;12.03;92.78;102108.91;5053462;28;20177;-70
2023/10/01 06:21:25;;;;;;;8.33;7.73;;;;;;;12.06;92.85;102105.97;5053366;28;20206;-70
2023/10/01 06:23:53;;;;;;;7.23;6.87;;;;;;;12.10;92.78;102099.38;5053160;28;20179;-71
2023/10/01 06:26:29;;;;;;;8.20;7.43;;;;;;;12.17;92.63;102103.25;5052793;28;20183;-71
2023/10/01 06:28:57;;;;;;;8.17;7.50;;;;;;;12.24;92.42;102099.06;5053341;28;20167;-71
2023/10/01 06:31:23;;;;;;;8.20;7.43;;;;;;;12.30;92.42;102094.06;5055979;28;20244;-70
2023/10/01 06:33:53;;;;;;;9.30;8.37;;;;;;;12.38;92.37;102096.09;5057146;28;20187;-70
2023/10/01 06:36:25;;;;;;;8.30;7.70;;;;;;;12.39;92.33;102089.72;5057122;28;20199;-70
2023/10/01 06:38:55;;;;;;;9.83;8.90;;;;;;;12.41;92.42;102095.81;5056895;28;20514;-70
2023/10/01 06:41:25;;;;;;;10.97;8.93;;;;;;;12.60;91.89;102089.75;5056447;28;20210;-70
2023/10/01 06:43:56;;;;;;;10.97;8.17;;;;;;;12.58;92.09;102094.38;5056736;28;20241;-70
2023/10/01 06:46:28;;;;;;;8.73;8.23;;;;;;;12.70;91.66;102096.00;5056724;28;20172;-70
2023/10/01 06:48:58;;;;;;;9.23;8.30;;;;;;;12.71;92.00;102100.41;5056415;28;20176;-70
2023/10/01 06:51:26;;;;;;;10.13;7.77;;;;;;;13.06;90.65;102100.88;5056427;28;20211;-71
2023/10/01 06:53:58;;;;;;;7.33;6.97;;;;;;;12.99;90.49;102098.84;5056477;28;20194;-71
2023/10/01 06:56:27;;;;;;;9.73;7.00;;;;;;;13.02;90.47;102118.25;5056177;28;20202;-71
2023/10/01 06:59:27;;;;;;;8.17;7.37;;;;;;;13.44;84.72;102110.97;5055556;28;20179;-71
2023/10/01 07:01:49;;;;;;;7.03;6.67;;;;;;;13.79;81.64;102115.03;5055762;28;20591;-71
2023/10/01 07:04:19;;;;;;;6.60;6.30;;;;;;;13.72;82.50;102117.41;5056394;28;20176;-70
2023/10/01 07:06:50;;;;;;;8.30;7.20;;;;;;;13.94;80.79;102114.47;5056663;28;20164;-71
2023/10/01 07:09:27;;;;;;;8.03;7.40;;;;;;;13.84;82.44;102110.06;5056041;28;20176;-67
2023/10/01 07:11:59;;;;;;;8.33;6.47;;;;;;;13.84;83.63;102115.44;5055929;28;20207;-67
2023/10/01 07:14:43;;;;;;;16.03;6.93;;;;;;;13.93;82.50;102119.97;5056130;28;20245;-67
2023/10/01 07:17:15;;;;;;;15.53;7.63;;;;;;;14.03;81.45;102120.84;5056331;28;20191;-67
2023/10/01 07:19:45;;;;;;;15.77;7.77;;;;;;;14.24;80.85;102118.88;5056340;28;20226;-67
2023/10/01 07:22:15;;;;;;;17.07;7.57;;;;;;;14.32;80.13;102121.72;5055661;28;20553;-67
2023/10/01 07:24:41;;;;;;;8.93;6.57;;;;;;;14.54;79.43;102124.16;5055727;28;20253;-67
2023/10/01 07:27:11;;;;;;;8.17;6.93;;;;;;;14.60;79.63;102122.69;5055897;28;20190;-67
2023/10/01 07:29:42;;;;;;;24.47;7.60;;;;;;;14.66;79.63;102107.81;5055718;28;20187;-67
2023/10/01 07:32:14;;;;;;;12.60;7.63;;;;;;;14.63;79.51;102111.66;5055575;28;20260;-67
2023/10/01 07:34:50;;;;;;;12.37;8.10;;;;;;;14.95;78.32;102120.22;5055816;28;20513;-67
2023/10/01 07:37:23;;;;;;;18.33;9.27;;;;;;;15.18;77.19;102120.72;5055974;28;20226;-67
2023/10/01 07:39:55;;;;;;;13.87;8.90;;;;;;;15.37;76.17;102114.41;5055479;28;20628;-67
2023/10/01 07:42:23;;;;;;;10.27;7.63;;;;;;;15.43;76.05;102117.38;5054106;28;20690;-67
2023/10/01 07:44:49;;;;;;;16.33;9.07;;;;;;;15.56;76.32;102106.25;5055589;28;20180;-67
2023/10/01 07:47:34;;;;;;;14.80;8.53;;;;;;;15.65;74.74;102097.28;5055306;28;20203;-67
2023/10/01 07:50:12;;;;;;;8.33;7.63;;;;;;;15.68;75.75;102101.50;5055576;28;20254;-67
2023/10/01 07:52:40;;;;;;;18.50;7.17;;;;;;;15.68;76.49;102102.34;5055510;28;20167;-67
2023/10/01 07:58:16;;;;;;;8.33;7.33;;;;;;;15.94;76.13;102111.41;5054580;28;20187;-67
2023/10/01 08:00:41;;;;;;;15.17;8.07;;;;;;;16.03;74.12;102117.75;5054898;28;20264;-67
2023/10/01 08:05:50;;;;;;;7.57;6.87;;;;;;;16.24;72.47;102110.19;5055200;28;20623;-67
2023/10/01 08:08:37;;;;;;;15.73;10.07;;;;;;;16.32;73.64;102115.66;5055462;28;20179;-67
2023/10/01 08:11:37;;;;;;;17.03;9.77;;;;;;;16.50;71.98;102112.94;5054983;28;20219;-67
2023/10/01 08:13:51;;;;;;;19.60;7.60;;;;;;;16.59;72.38;102114.72;5054625;28;20701;-67
2023/10/01 08:16:17;;;;;;;10.03;8.17;;;;;;;16.63;72.01;102110.72;5054709;28;20267;-67
2023/10/01 08:18:46;;;;;;;13.00;10.13;;;;;;;16.73;72.73;102108.75;5055017;28;20265;-67
2023/10/01 08:21:15;;;;;;;15.23;7.20;;;;;;;16.83;71.05;102103.25;5054416;28;20203;-67
2023/10/01 08:23:48;;;;;;;10.87;7.73;;;;;;;16.85;70.70;102107.47;5054573;28;20187;-67
2023/10/01 08:29:00;;;;;;;10.13;8.17;;;;;;;17.02;71.60;102116.53;5054766;28;20175;-67
2023/10/01 08:34:27;;;;;;;12.07;7.97;;;;;;;17.11;71.13;102114.72;5054683;28;20662;-67
2023/10/01 08:37:06;;;;;;;8.73;7.70;;;;;;;17.14;73.30;102107.16;5055082;28;20552;-67
2023/10/01 08:39:47;;;;;;;7.13;6.23;;;;;;;17.35;73.70;102109.47;5054491;28;20179;-67
2023/10/01 08:42:16;;;;;;;14.00;8.10;;;;;;;17.66;69.14;102107.06;5054952;28;20215;-68
2023/10/01 08:44:54;;;;;;;9.47;7.43;;;;;;;17.68;73.14;102111.31;5054731;28;20650;-67
2023/10/01 08:47:31;;;;;;;17.27;7.47;;;;;;;17.64;69.44;102109.97;5054432;28;20646;-68
2023/10/01 08:50:17;;;;;;;9.73;6.90;;;;;;;17.61;69.47;102117.56;5054903;28;20171;-67
2023/10/01 08:53:10;;;;;;;15.17;7.47;;;;;;;17.70;70.85;102116.53;5054231;28;20538;-67
2023/10/01 08:55:39;;;;;;;11.50;7.57;;;;;;;17.75;69.71;102114.19;5054446;28;20211;-67
2023/10/01 09:00:49;;;;;;;7.60;6.30;;;;;;;17.76;69.05;102110.50;5054100;28;20217;-68
2023/10/01 09:03:28;;;;;;;8.27;6.97;;;;;;;17.83;71.14;102111.50;5053830;28;20195;-68
2023/10/01 09:06:03;;;;;;;7.73;6.93;;;;;;;17.95;71.49;102114.78;5054086;28;20259;-67
2023/10/01 09:08:31;;;;;;;7.27;6.60;;;;;;;18.02;68.75;102119.34;5054060;28;20175;-67
2023/10/01 09:11:01;;;;;;;14.10;7.40;;;;;;;17.99;68.86;102116.13;5053634;28;20238;-68
2023/10/01 09:13:30;;;;;;;9.50;7.73;;;;;;;18.05;68.42;102113.59;5053894;28;20198;-67
2023/10/01 09:16:10;;;;;;;6.80;6.30;;;;;;;18.08;69.79;102113.25;5053567;28;20286;-67
2023/10/01 09:19:29;;;;;;;9.53;6.93;;;;;;;18.17;67.39;102112.25;5053653;28;20171;-67
2023/10/01 09:21:49;;;;;;;8.43;6.10;;;;;;;18.10;68.20;102113.09;5053261;28;20210;-67
2023/10/01 09:24:39;;;;;;;8.07;7.33;;;;;;;18.32;67.44;102117.03;5053456;28;20191;-67
2023/10/01 09:27:20;;;;;;;11.17;7.13;;;;;;;18.25;67.59;102116.84;5054282;28;20549;-67
2023/10/01 09:29:57;;;;;;;10.97;7.63;;;;;;;18.35;68.05;102113.97;5053445;28;20179;-67
2023/10/01 09:32:52;;;;;;;9.60;6.90;;;;;;;18.45;69.62;102101.97;5053336;28;20210;-67
2023/10/01 09:35:30;;;;;;;11.90;7.27;;;;;;;18.47;68.35;102104.50;5054058;28;20599;-68
2023/10/01 09:38:12;;;;;;;8.50;6.97;;;;;;;18.60;67.59;102103.00;5053308;28;20520;-68
2023/10/01 09:40:44;;;;;;;8.07;7.27;;;;;;;18.64;67.82;102100.78;5053510;28;20211;-67
2023/10/01 09:43:18;;;;;;;8.43;7.17;;;;;;;18.71;67.13;102102.63;5053278;28;20167;-67
2023/10/01 09:45:48;;;;;;;9.73;7.23;;;;;;;18.76;67.92;102095.84;5053722;28;20189;-67
2023/10/01 09:48:29;;;;;;;14.20;7.03;;;;;;;18.70;68.42;102102.84;5053424;28;20186;-67
2023/10/01 09:51:11;;;;;;;8.90;7.93;;;;;;;18.93;66.16;102098.38;5053509;28;20567;-67
2023/10/01 09:53:51;;;;;;;8.23;6.50;;;;;;;19.00;69.13;102096.69;5053659;28;20612;-67
2023/10/01 09:56:26;;;;;;;12.77;9.20;;;;;;;19.05;66.82;102096.16;5053529;28;20559;-67
2023/10/01 09:59:03;;;;;;;9.13;8.23;;;;;;;19.10;67.32;102086.47;5053374;28;20237;-67
2023/10/01 10:01:36;;;;;;;8.47;7.73;;;;;;;19.08;65.88;102101.22;5053266;28;20556;-67
2023/10/01 10:04:06;;;;;;;11.43;7.43;;;;;;;19.13;67.20;102104.28;5053266;28;20179;-67
2023/10/01 10:06:34;;;;;;;10.97;6.33;;;;;;;19.20;67.13;102101.69;5057063;28;20211;-67
2023/10/01 10:09:03;;;;;;;12.23;7.57;;;;;;;19.23;65.62;102099.47;5057405;28;20194;-67
2023/10/01 10:11:36;;;;;;;10.90;6.90;;;;;;;19.16;65.98;102099.34;5057214;28;20214;-68
2023/10/01 10:14:27;;;;;;;9.63;7.20;;;;;;;19.18;68.22;102096.44;5057057;28;20198;-67
2023/10/01 10:16:58;;;;;;;13.17;7.30;;;;;;;19.16;67.05;102085.78;5056946;28;20231;-67
2023/10/01 10:19:30;;;;;;;8.30;7.20;;;;;;;19.27;66.16;102080.97;5056980;28;20176;-67
2023/10/01 10:24:30;;;;;;;7.67;7.03;;;;;;;19.22;67.20;102076.13;5057367;28;20179;-67
2023/10/01 10:27:03;;;;;;;9.90;7.20;;;;;;;19.24;66.06;102076.78;5057406;28;20224;-67
2023/10/01 10:29:57;;;;;;;9.73;8.00;;;;;;;19.34;66.34;102065.72;5055638;28;20179;-67
2023/10/01 10:32:30;;;;;;;7.40;6.67;;;;;;;19.42;66.43;102076.53;5056688;28;20268;-67
2023/10/01 10:35:03;;;;;;;10.40;7.10;;;;;;;19.63;68.26;102076.78;5056941;28;20168;-67
2023/10/01 10:37:37;;;;;;;8.83;7.17;;;;;;;19.75;68.57;102064.50;5056536;28;20635;-67
2023/10/01 10:40:12;;;;;;;8.07;7.17;;;;;;;19.96;67.13;102072.00;5057004;28;20540;-67
2023/10/01 10:42:40;;;;;;;8.10;6.80;;;;;;;19.79;66.85;102073.13;5056549;28;20175;-67
2023/10/01 10:45:23;;;;;;;7.30;6.03;;;;;;;19.79;67.26;102082.13;5056412;28;20191;-67
2023/10/01 10:48:03;;;;;;;10.23;6.83;;;;;;;19.74;65.73;102081.81;5056443;28;20266;-67
2023/10/01 10:50:46;;;;;;;14.13;6.97;;;;;;;19.77;64.94;102092.31;5056572;28;20217;-68
2023/10/01 10:53:29;;;;;;;7.33;6.67;;;;;;;19.77;67.11;102078.75;5056347;28;20178;-68
2023/10/01 10:55:56;;;;;;;8.43;6.90;;;;;;;19.84;65.99;102089.72;5056199;28;20541;-68
2023/10/01 10:58:31;;;;;;;7.97;7.07;;;;;;;19.87;65.81;102082.06;5056103;28;20215;-68
2023/10/01 11:01:19;;;;;;;7.97;7.00;;;;;;;20.03;65.37;102081.94;5056733;28;20203;-68
2023/10/01 11:03:57;;;;;;;13.20;6.60;;;;;;;20.22;64.72;102075.22;5056471;28;20210;-68
2023/10/01 11:07:13;;;;;;;11.90;7.97;;;;;;;20.26;63.88;102072.97;5056075;28;20168;-67
2023/10/01 11:09:25;;;;;;;15.63;7.30;;;;;;;20.15;65.59;102063.38;5055474;28;20203;-67
2023/10/01 11:12:07;;;;;;;7.90;7.00;;;;;;;20.17;66.16;102072.19;5055862;28;20297;-68
2023/10/01 11:14:37;;;;;;;8.83;6.97;;;;;;;20.29;64.87;102072.59;5056088;28;20206;-68
2023/10/01 11:17:07;;;;;;;7.23;6.50;;;;;;;20.44;64.96;102066.22;5056132;28;20195;-68
2023/10/01 11:19:37;;;;;;;9.50;6.87;;;;;;;20.50;66.01;102060.03;5056400;28;20172;-68
2023/10/01 11:22:07;;;;;;;13.80;7.97;;;;;;;20.76;64.13;102066.91;5056101;28;20211;-67
2023/10/01 11:24:39;;;;;;;10.30;7.07;;;;;;;20.82;63.16;102064.31;5056032;28;20191;-67
2023/10/01 11:27:25;;;;;;;12.40;8.13;;;;;;;20.49;63.00;102065.69;5056028;28;20171;-68
2023/10/01 11:30:12;;;;;;;7.50;6.67;;;;;;;20.47;65.13;102071.28;5055965;28;20266;-68
2023/10/01 11:32:58;;;;;;;21.90;6.77;;;;;;;20.41;63.26;102063.84;5055906;28;20168;-68
2023/10/01 11:35:32;;;;;;;7.57;6.87;;;;;;;20.33;63.46;102065.78;5056100;28;20183;-68
2023/10/01 11:38:12;;;;;;;12.27;6.77;;;;;;;20.42;65.06;102068.28;5055979;28;20709;-68
2023/10/01 11:43:27;;;;;;;8.13;7.33;;;;;;;20.60;64.18;102057.06;5055175;28;20172;-68
2023/10/01 11:46:23;;;;;;;16.03;7.57;;;;;;;20.81;62.49;102050.91;5055352;28;20601;-67
2023/10/01 11:48:56;;;;;;;11.77;7.60;;;;;;;20.66;64.77;102056.34;5055887;28;20179;-67
2023/10/01 11:51:43;;;;;;;11.77;7.53;;;;;;;20.62;63.86;102041.44;5055343;28;20211;-68
2023/10/01 11:54:16;;;;;;;10.97;8.00;;;;;;;20.69;63.97;102045.09;5055803;28;20508;-67
2023/10/01 11:56:47;;;;;;;11.43;8.43;;;;;;;20.72;63.89;102033.00;5055600;28;20199;-67
2023/10/01 11:59:18;;;;;;;16.50;9.90;;;;;;;20.92;64.41;102036.84;5055409;28;20171;-67
2023/10/01 12:01:53;;;;;;;10.90;8.10;;;;;;;20.92;64.74;102031.41;5055272;28;20577;-68
2023/10/01 12:04:43;;;;;;;10.27;8.50;;;;;;;21.04;63.95;102024.47;5055571;28;20542;-68
2023/10/01 12:07:18;;;;;;;10.10;7.57;;;;;;;21.19;62.70;102021.75;5055227;28;20254;-68
2023/10/01 12:09:55;;;;;;;10.17;8.50;;;;;;;21.16;64.40;102023.00;5055296;28;20224;-69
2023/10/01 12:12:36;;;;;;;12.43;7.73;;;;;;;21.03;63.67;102025.50;5055377;28;20710;-68
2023/10/01 12:17:49;;;;;;;16.47;7.00;;;;;;;21.35;62.74;102005.22;5054950;28;20659;-68
2023/10/01 12:20:30;;;;;;;10.87;8.10;;;;;;;21.18;62.05;102015.47;5054940;28;20199;-68
2023/10/01 12:23:10;;;;;;;14.47;8.17;;;;;;;21.11;64.35;102000.94;5054670;28;20181;-68
2023/10/01 12:25:50;;;;;;;10.70;8.60;;;;;;;21.20;62.39;101990.81;5055149;28;20179;-68
2023/10/01 12:28:18;;;;;;;13.87;7.60;;;;;;;21.26;66.12;101977.28;5054147;28;20620;-68
2023/10/01 12:30:57;;;;;;;11.60;7.70;;;;;;;21.34;63.89;101995.41;5054673;28;20207;-67
2023/10/01 12:33:24;;;;;;;12.87;8.43;;;;;;;21.49;61.85;101990.75;5054470;28;20201;-67